sensor_id;sensor_type;location;lat;lon;timestamp;pressure;altitude;pressure_sealevel;temperature;humidity
34297;BME280;20564;42.902;25.336;2023-05-02T00:02:07;97666.75;;;7.40;100.00
34297;BME280;20564;42.902;25.336;2023-05-02T00:04:35;97679.22;;;7.36;100.00
34297;BME280;20564;42.902;25.336;2023-05-02T00:07:03;97677.53;;;7.35;100.00
34297;BME280;20564;42.902;25.336;2023-05-02T00:09:31;97683.28;;;7.28;100.00
34297;BME280;20564;42.902;25.336;2023-05-02T00:11:58;97682.38;;;7.16;100.00
34297;BME280;20564;42.902;25.336;2023-05-02T00:14:26;97682.38;;;7.16;100.00
34297;BME280;20564;42.902;25.336;2023-05-02T00:16:54;97686.56;;;7.18;100.00
34297;BME280;20564;42.902;25.336;2023-05-02T00:19:23;97679.88;;;7.14;100.00
34297;BME280;20564;42.902;25.336;2023-05-02T00:21:53;97679.03;;;7.14;100.00
34297;BME280;20564;42.902;25.336;2023-05-02T00:24:21;97686.16;;;7.24;100.00
34297;BME280;20564;42.902;25.336;2023-05-02T00:26:49;97683.84;;;7.20;100.00
34297;BME280;20564;42.902;25.336;2023-05-02T00:29:16;97678.59;;;7.20;100.00
34297;BME280;20564;42.902;25.336;2023-05-02T00:31:44;97675.88;;;7.09;100.00
34297;BME280;20564;42.902;25.336;2023-05-02T00:34:12;97681.88;;;7.11;100.00
34297;BME280;20564;42.902;25.336;2023-05-02T00:36:40;97690.69;;;7.10;100.00
34297;BME280;20564;42.902;25.336;2023-05-02T00:39:16;97692.84;;;7.16;100.00
34297;BME280;20564;42.902;25.336;2023-05-02T00:41:46;97693.16;;;7.11;100.00
34297;BME280;20564;42.902;25.336;2023-05-02T00:44:14;97684.91;;;7.05;100.00
34297;BME280;20564;42.902;25.336;2023-05-02T00:46:41;97695.38;;;7.05;100.00
34297;BME280;20564;42.902;25.336;2023-05-02T00:49:12;97695.78;;;7.11;100.00
34297;BME280;20564;42.902;25.336;2023-05-02T00:51:39;97695.03;;;7.09;100.00
34297;BME280;20564;42.902;25.336;2023-05-02T00:54:07;97696.53;;;7.00;100.00
34297;BME280;20564;42.902;25.336;2023-05-02T00:56:37;97695.56;;;7.01;100.00
34297;BME280;20564;42.902;25.336;2023-05-02T00:59:09;97692.66;;;6.93;100.00
34297;BME280;20564;42.902;25.336;2023-05-02T01:02:02;97698.31;;;6.87;100.00
34297;BME280;20564;42.902;25.336;2023-05-02T01:10:51;97702.69;;;6.87;100.00
34297;BME280;20564;42.902;25.336;2023-05-02T01:13:28;97690.56;;;6.73;100.00
34297;BME280;20564;42.902;25.336;2023-05-02T01:15:58;97687.00;;;6.74;100.00
34297;BME280;20564;42.902;25.336;2023-05-02T01:18:32;97693.50;;;6.81;100.00
34297;BME280;20564;42.902;25.336;2023-05-02T01:21:07;97689.72;;;6.72;100.00
34297;BME280;20564;42.902;25.336;2023-05-02T01:26:57;97690.88;;;6.68;100.00
34297;BME280;20564;42.902;25.336;2023-05-02T01:29:30;97689.53;;;6.63;100.00
34297;BME280;20564;42.902;25.336;2023-05-02T01:32:00;97689.41;;;6.64;100.00
34297;BME280;20564;42.902;25.336;2023-05-02T01:34:30;97694.13;;;6.59;100.00
34297;BME280;20564;42.902;25.336;2023-05-02T01:37:00;97686.47;;;6.56;100.00
34297;BME280;20564;42.902;25.336;2023-05-02T01:39:29;97683.22;;;6.52;100.00
34297;BME280;20564;42.902;25.336;2023-05-02T01:41:58;97695.16;;;6.57;100.00
34297;BME280;20564;42.902;25.336;2023-05-02T01:44:29;97691.59;;;6.58;100.00
34297;BME280;20564;42.902;25.336;2023-05-02T01:47:01;97690.44;;;6.62;100.00
34297;BME280;20564;42.902;25.336;2023-05-02T01:49:32;97693.50;;;6.56;100.00
34297;BME280;20564;42.902;25.336;2023-05-02T01:52:07;97689.59;;;6.48;100.00
34297;BME280;20564;42.902;25.336;2023-05-02T01:54:38;97692.41;;;6.45;100.00
34297;BME280;20564;42.902;25.336;2023-05-02T01:57:08;97697.13;;;6.40;100.00
34297;BME280;20564;42.902;25.336;2023-05-02T01:59:39;97706.84;;;6.38;100.00
34297;BME280;20564;42.902;25.336;2023-05-02T02:02:10;97701.59;;;6.38;100.00
34297;BME280;20564;42.902;25.336;2023-05-02T02:04:39;97690.50;;;6.35;100.00
34297;BME280;20564;42.902;25.336;2023-05-02T02:07:08;97694.91;;;6.34;100.00
34297;BME280;20564;42.902;25.336;2023-05-02T02:09:40;97700.00;;;6.23;100.00
34297;BME280;20564;42.902;25.336;2023-05-02T02:12:15;97702.44;;;6.26;100.00
34297;BME280;20564;42.902;25.336;2023-05-02T02:14:49;97701.88;;;6.21;100.00
34297;BME280;20564;42.902;25.336;2023-05-02T02:17:42;97695.81;;;6.20;100.00
34297;BME280;20564;42.902;25.336;2023-05-02T02:20:11;97693.63;;;6.27;100.00
34297;BME280;20564;42.902;25.336;2023-05-02T02:22:42;97697.97;;;6.14;100.00
34297;BME280;20564;42.902;25.336;2023-05-02T02:25:13;97700.19;;;6.07;100.00
34297;BME280;20564;42.902;25.336;2023-05-02T02:27:42;97702.69;;;6.09;100.00
34297;BME280;20564;42.902;25.336;2023-05-02T02:30:11;97699.97;;;6.10;100.00
34297;BME280;20564;42.902;25.336;2023-05-02T02:32:38;97696.50;;;6.10;100.00
34297;BME280;20564;42.902;25.336;2023-05-02T02:35:06;97703.63;;;6.08;100.00
34297;BME280;20564;42.902;25.336;2023-05-02T02:37:40;97696.13;;;6.16;100.00
34297;BME280;20564;42.902;25.336;2023-05-02T02:40:19;97698.22;;;6.11;100.00
34297;BME280;20564;42.902;25.336;2023-05-02T02:43:26;97702.38;;;6.13;100.00
34297;BME280;20564;42.902;25.336;2023-05-02T02:48:48;97704.84;;;6.02;100.00
34297;BME280;20564;42.902;25.336;2023-05-02T02:51:24;97710.53;;;6.09;100.00
34297;BME280;20564;42.902;25.336;2023-05-02T02:56:26;97713.88;;;6.11;100.00
34297;BME280;20564;42.902;25.336;2023-05-02T02:59:05;97714.09;;;6.08;100.00
34297;BME280;20564;42.902;25.336;2023-05-02T03:01:40;97713.03;;;6.10;100.00
34297;BME280;20564;42.902;25.336;2023-05-02T03:04:10;97712.38;;;6.07;100.00
34297;BME280;20564;42.902;25.336;2023-05-02T03:06:39;97718.56;;;6.06;100.00
34297;BME280;20564;42.902;25.336;2023-05-02T03:09:14;97714.47;;;6.01;100.00
34297;BME280;20564;42.902;25.336;2023-05-02T03:11:43;97711.09;;;5.99;100.00
34297;BME280;20564;42.902;25.336;2023-05-02T03:14:11;97711.31;;;5.96;100.00
34297;BME280;20564;42.902;25.336;2023-05-02T03:16:39;97712.03;;;5.98;100.00
34297;BME280;20564;42.902;25.336;2023-05-02T03:19:07;97709.63;;;5.95;100.00
34297;BME280;20564;42.902;25.336;2023-05-02T03:21:34;97716.56;;;5.96;100.00
34297;BME280;20564;42.902;25.336;2023-05-02T03:24:03;97705.88;;;5.99;100.00
34297;BME280;20564;42.902;25.336;2023-05-02T03:26:30;97717.84;;;6.03;100.00
34297;BME280;20564;42.902;25.336;2023-05-02T03:28:57;97719.38;;;6.06;100.00
34297;BME280;20564;42.902;25.336;2023-05-02T03:31:24;97719.59;;;6.03;100.00
34297;BME280;20564;42.902;25.336;2023-05-02T03:33:52;97719.50;;;6.04;100.00
34297;BME280;20564;42.902;25.336;2023-05-02T03:36:20;97720.06;;;5.95;100.00
34297;BME280;20564;42.902;25.336;2023-05-02T03:38:47;97730.53;;;5.95;100.00
34297;BME280;20564;42.902;25.336;2023-05-02T03:41:13;97722.97;;;5.91;100.00
34297;BME280;20564;42.902;25.336;2023-05-02T03:43:41;97730.53;;;5.95;100.00
34297;BME280;20564;42.902;25.336;2023-05-02T03:46:08;97737.47;;;5.96;100.00
34297;BME280;20564;42.902;25.336;2023-05-02T03:48:38;97736.84;;;5.91;100.00
34297;BME280;20564;42.902;25.336;2023-05-02T03:51:05;97735.94;;;5.92;100.00
34297;BME280;20564;42.902;25.336;2023-05-02T03:53:35;97740.59;;;6.01;100.00
34297;BME280;20564;42.902;25.336;2023-05-02T03:56:03;97748.31;;;6.03;100.00
34297;BME280;20564;42.902;25.336;2023-05-02T03:58:30;97743.75;;;6.07;100.00
34297;BME280;20564;42.902;25.336;2023-05-02T04:00:57;97741.06;;;6.08;100.00
34297;BME280;20564;42.902;25.336;2023-05-02T04:03:24;97741.28;;;6.18;100.00
34297;BME280;20564;42.902;25.336;2023-05-02T04:05:53;97744.44;;;6.23;100.00
34297;BME280;20564;42.902;25.336;2023-05-02T04:08:20;97739.78;;;6.41;100.00
34297;BME280;20564;42.902;25.336;2023-05-02T04:10:50;97744.53;;;6.48;100.00
34297;BME280;20564;42.902;25.336;2023-05-02T04:13:18;97742.16;;;6.58;100.00
34297;BME280;20564;42.902;25.336;2023-05-02T04:15:46;97746.97;;;6.77;100.00
34297;BME280;20564;42.902;25.336;2023-05-02T04:18:14;97745.84;;;6.81;100.00
34297;BME280;20564;42.902;25.336;2023-05-02T04:20:42;97746.69;;;7.07;100.00
34297;BME280;20564;42.902;25.336;2023-05-02T04:23:11;97743.84;;;7.36;100.00
34297;BME280;20564;42.902;25.336;2023-05-02T04:25:38;97744.84;;;7.59;100.00
34297;BME280;20564;42.902;25.336;2023-05-02T04:28:09;97743.81;;;7.85;100.00
34297;BME280;20564;42.902;25.336;2023-05-02T04:30:38;97750.69;;;8.12;100.00
34297;BME280;20564;42.902;25.336;2023-05-02T04:33:05;97740.63;;;8.54;100.00
34297;BME280;20564;42.902;25.336;2023-05-02T04:35:34;97739.03;;;8.75;100.00
34297;BME280;20564;42.902;25.336;2023-05-02T04:38:01;97728.81;;;9.17;100.00
34297;BME280;20564;42.902;25.336;2023-05-02T04:40:31;97732.09;;;9.54;100.00
34297;BME280;20564;42.902;25.336;2023-05-02T04:42:58;97735.97;;;9.82;100.00
34297;BME280;20564;42.902;25.336;2023-05-02T04:45:26;97723.22;;;10.21;100.00
34297;BME280;20564;42.902;25.336;2023-05-02T04:47:53;97731.84;;;10.55;99.15
34297;BME280;20564;42.902;25.336;2023-05-02T04:50:21;97730.31;;;10.95;97.86
34297;BME280;20564;42.902;25.336;2023-05-02T04:52:48;97725.97;;;11.35;96.88
34297;BME280;20564;42.902;25.336;2023-05-02T04:55:16;97726.28;;;11.82;92.49
34297;BME280;20564;42.902;25.336;2023-05-02T04:57:43;97723.44;;;12.24;90.86
34297;BME280;20564;42.902;25.336;2023-05-02T05:00:12;97717.63;;;12.60;88.36
34297;BME280;20564;42.902;25.336;2023-05-02T05:02:40;97718.53;;;13.07;85.24
34297;BME280;20564;42.902;25.336;2023-05-02T05:05:07;97723.22;;;13.42;82.91
34297;BME280;20564;42.902;25.336;2023-05-02T05:07:34;97719.63;;;13.89;83.63
34297;BME280;20564;42.902;25.336;2023-05-02T05:10:01;97714.84;;;14.20;80.65
34297;BME280;20564;42.902;25.336;2023-05-02T05:12:29;97717.28;;;14.49;79.21
34297;BME280;20564;42.902;25.336;2023-05-02T05:14:59;97708.28;;;14.78;78.00
34297;BME280;20564;42.902;25.336;2023-05-02T05:17:26;97703.88;;;15.12;75.80
34297;BME280;20564;42.902;25.336;2023-05-02T05:19:53;97702.97;;;15.56;72.95
34297;BME280;20564;42.902;25.336;2023-05-02T05:22:19;97706.28;;;15.92;71.09
34297;BME280;20564;42.902;25.336;2023-05-02T05:24:53;97704.22;;;16.36;68.46
34297;BME280;20564;42.902;25.336;2023-05-02T05:27:20;97696.09;;;16.71;63.95
34297;BME280;20564;42.902;25.336;2023-05-02T05:29:47;97694.13;;;17.05;62.71
34297;BME280;20564;42.902;25.336;2023-05-02T05:32:14;97697.34;;;17.40;62.71
34297;BME280;20564;42.902;25.336;2023-05-02T05:34:41;97695.09;;;17.68;61.45
34297;BME280;20564;42.902;25.336;2023-05-02T05:37:08;97694.16;;;18.00;58.15
34297;BME280;20564;42.902;25.336;2023-05-02T05:39:35;97698.00;;;18.29;54.76
34297;BME280;20564;42.902;25.336;2023-05-02T05:42:01;97694.72;;;18.65;53.15
34297;BME280;20564;42.902;25.336;2023-05-02T05:44:29;97689.81;;;18.99;54.38
34297;BME280;20564;42.902;25.336;2023-05-02T05:46:57;97689.22;;;19.27;50.11
34297;BME280;20564;42.902;25.336;2023-05-02T05:49:24;97686.81;;;19.32;49.72
34297;BME280;20564;42.902;25.336;2023-05-02T05:51:53;97689.28;;;19.48;48.70
34297;BME280;20564;42.902;25.336;2023-05-02T05:54:20;97686.53;;;19.86;44.58
34297;BME280;20564;42.902;25.336;2023-05-02T05:56:48;97682.69;;;20.10;41.33
34297;BME280;20564;42.902;25.336;2023-05-02T05:59:15;97695.81;;;20.05;42.38
34297;BME280;20564;42.902;25.336;2023-05-02T06:01:41;97697.03;;;20.24;43.85
34297;BME280;20564;42.902;25.336;2023-05-02T06:04:08;97693.94;;;20.42;40.69
34297;BME280;20564;42.902;25.336;2023-05-02T06:06:38;97694.66;;;20.51;38.35
34297;BME280;20564;42.902;25.336;2023-05-02T06:09:06;97689.47;;;20.64;41.54
34297;BME280;20564;42.902;25.336;2023-05-02T06:11:33;97691.34;;;20.48;38.21
34297;BME280;20564;42.902;25.336;2023-05-02T06:14:02;97694.28;;;20.54;37.45
34297;BME280;20564;42.902;25.336;2023-05-02T06:16:28;97693.66;;;20.52;38.03
34297;BME280;20564;42.902;25.336;2023-05-02T06:18:56;97689.28;;;20.29;35.92
34297;BME280;20564;42.902;25.336;2023-05-02T06:21:23;97699.88;;;20.37;37.37
34297;BME280;20564;42.902;25.336;2023-05-02T06:23:49;97690.56;;;20.33;37.94
34297;BME280;20564;42.902;25.336;2023-05-02T06:26:16;97695.13;;;20.54;37.41
34297;BME280;20564;42.902;25.336;2023-05-02T06:28:43;97690.72;;;20.68;37.75
34297;BME280;20564;42.902;25.336;2023-05-02T06:31:10;97691.69;;;20.60;36.14
34297;BME280;20564;42.902;25.336;2023-05-02T06:33:49;97696.34;;;20.52;36.36
34297;BME280;20564;42.902;25.336;2023-05-02T06:36:18;97693.75;;;20.86;35.38
34297;BME280;20564;42.902;25.336;2023-05-02T06:38:46;97688.63;;;21.13;34.90
34297;BME280;20564;42.902;25.336;2023-05-02T06:41:14;97694.38;;;21.10;34.57
34297;BME280;20564;42.902;25.336;2023-05-02T06:43:46;97705.22;;;20.37;33.63
34297;BME280;20564;42.902;25.336;2023-05-02T06:46:14;97701.03;;;20.13;33.52
34297;BME280;20564;42.902;25.336;2023-05-02T06:48:41;97698.75;;;19.95;34.60
34297;BME280;20564;42.902;25.336;2023-05-02T06:51:13;97702.59;;;20.22;35.19
34297;BME280;20564;42.902;25.336;2023-05-02T06:53:40;97700.88;;;20.15;35.23
34297;BME280;20564;42.902;25.336;2023-05-02T06:56:09;97713.38;;;20.14;34.22
34297;BME280;20564;42.902;25.336;2023-05-02T06:58:36;97706.28;;;20.07;36.41
34297;BME280;20564;42.902;25.336;2023-05-02T07:01:03;97708.72;;;20.02;34.86
34297;BME280;20564;42.902;25.336;2023-05-02T07:03:30;97698.06;;;20.23;35.19
34297;BME280;20564;42.902;25.336;2023-05-02T07:05:59;97694.00;;;20.27;33.91
34297;BME280;20564;42.902;25.336;2023-05-02T07:08:26;97698.81;;;20.53;34.29
34297;BME280;20564;42.902;25.336;2023-05-02T07:10:53;97704.84;;;20.83;32.94
34297;BME280;20564;42.902;25.336;2023-05-02T07:13:24;97708.25;;;20.99;33.60
34297;BME280;20564;42.902;25.336;2023-05-02T07:15:51;97702.88;;;21.20;33.26
34297;BME280;20564;42.902;25.336;2023-05-02T07:18:29;97701.28;;;21.54;33.15
34297;BME280;20564;42.902;25.336;2023-05-02T07:20:59;97707.91;;;21.58;33.60
34297;BME280;20564;42.902;25.336;2023-05-02T07:23:27;97699.81;;;21.51;32.82
34297;BME280;20564;42.902;25.336;2023-05-02T07:25:53;97700.81;;;21.43;31.55
34297;BME280;20564;42.902;25.336;2023-05-02T07:28:20;97699.03;;;21.29;32.11
34297;BME280;20564;42.902;25.336;2023-05-02T07:30:47;97705.16;;;21.23;32.39
34297;BME280;20564;42.902;25.336;2023-05-02T07:33:14;97712.22;;;21.31;32.95
34297;BME280;20564;42.902;25.336;2023-05-02T07:35:42;97694.84;;;21.20;32.23
34297;BME280;20564;42.902;25.336;2023-05-02T07:38:09;97704.59;;;21.56;32.24
34297;BME280;20564;42.902;25.336;2023-05-02T07:40:37;97702.28;;;21.53;31.96
34297;BME280;20564;42.902;25.336;2023-05-02T07:43:04;97698.38;;;21.49;31.10
34297;BME280;20564;42.902;25.336;2023-05-02T07:45:31;97698.63;;;21.54;31.66
34297;BME280;20564;42.902;25.336;2023-05-02T07:48:00;97711.69;;;21.70;31.71
34297;BME280;20564;42.902;25.336;2023-05-02T07:50:27;97699.88;;;21.58;30.36
34297;BME280;20564;42.902;25.336;2023-05-02T07:52:54;97707.09;;;21.64;30.37
34297;BME280;20564;42.902;25.336;2023-05-02T07:55:21;97705.19;;;21.92;30.67
34297;BME280;20564;42.902;25.336;2023-05-02T07:57:52;97707.03;;;21.92;29.98
34297;BME280;20564;42.902;25.336;2023-05-02T08:00:19;97710.50;;;21.86;29.24
34297;BME280;20564;42.902;25.336;2023-05-02T08:02:46;97699.88;;;22.06;30.08
34297;BME280;20564;42.902;25.336;2023-05-02T08:05:13;97703.66;;;22.18;28.54
34297;BME280;20564;42.902;25.336;2023-05-02T08:07:41;97712.78;;;22.24;29.08
34297;BME280;20564;42.902;25.336;2023-05-02T08:10:09;97715.50;;;21.96;28.43
34297;BME280;20564;42.902;25.336;2023-05-02T08:12:41;97703.50;;;21.85;28.95
34297;BME280;20564;42.902;25.336;2023-05-02T08:15:11;97718.13;;;21.82;28.94
34297;BME280;20564;42.902;25.336;2023-05-02T08:17:39;97712.31;;;21.79;29.63
34297;BME280;20564;42.902;25.336;2023-05-02T08:20:07;97725.75;;;21.85;29.41
34297;BME280;20564;42.902;25.336;2023-05-02T08:22:34;97725.47;;;21.39;29.50
34297;BME280;20564;42.902;25.336;2023-05-02T08:25:14;97710.44;;;21.10;29.15
34297;BME280;20564;42.902;25.336;2023-05-02T08:31:11;97713.91;;;21.32;31.43
34297;BME280;20564;42.902;25.336;2023-05-02T08:33:53;97712.69;;;21.34;29.10
34297;BME280;20564;42.902;25.336;2023-05-02T08:36:22;97712.78;;;21.48;30.36
34297;BME280;20564;42.902;25.336;2023-05-02T08:38:50;97710.03;;;21.69;29.97
34297;BME280;20564;42.902;25.336;2023-05-02T08:41:21;97721.34;;;21.71;29.35
34297;BME280;20564;42.902;25.336;2023-05-02T08:43:49;97713.38;;;21.43;29.76
34297;BME280;20564;42.902;25.336;2023-05-02T08:46:18;97716.88;;;21.43;29.87
34297;BME280;20564;42.902;25.336;2023-05-02T08:48:51;97723.84;;;21.38;30.27
34297;BME280;20564;42.902;25.336;2023-05-02T08:51:21;97718.56;;;21.51;29.72
34297;BME280;20564;42.902;25.336;2023-05-02T08:53:51;97715.38;;;21.69;29.63
34297;BME280;20564;42.902;25.336;2023-05-02T08:56:22;97727.66;;;21.57;29.47
34297;BME280;20564;42.902;25.336;2023-05-02T08:59:00;97723.81;;;21.66;28.86
34297;BME280;20564;42.902;25.336;2023-05-02T09:01:35;97719.97;;;21.82;28.93
34297;BME280;20564;42.902;25.336;2023-05-02T09:04:05;97726.66;;;21.58;28.90
34297;BME280;20564;42.902;25.336;2023-05-02T09:06:35;97721.44;;;21.50;29.19
34297;BME280;20564;42.902;25.336;2023-05-02T09:09:07;97725.47;;;21.39;29.43
34297;BME280;20564;42.902;25.336;2023-05-02T09:11:36;97728.38;;;21.37;29.15
34297;BME280;20564;42.902;25.336;2023-05-02T09:14:16;97714.59;;;21.40;29.86
34297;BME280;20564;42.902;25.336;2023-05-02T09:16:48;97715.69;;;21.53;29.94
34297;BME280;20564;42.902;25.336;2023-05-02T09:19:24;97702.47;;;21.45;28.77
34297;BME280;20564;42.902;25.336;2023-05-02T09:22:01;97703.66;;;21.35;29.61
34297;BME280;20564;42.902;25.336;2023-05-02T09:24:30;97704.28;;;21.72;29.99
34297;BME280;20564;42.902;25.336;2023-05-02T09:27:03;97708.53;;;22.08;29.91
34297;BME280;20564;42.902;25.336;2023-05-02T09:29:33;97701.13;;;22.10;30.48
34297;BME280;20564;42.902;25.336;2023-05-02T09:32:49;97697.59;;;22.03;29.08
34297;BME280;20564;42.902;25.336;2023-05-02T09:35:24;97677.75;;;22.38;29.06
34297;BME280;20564;42.902;25.336;2023-05-02T09:38:18;97685.97;;;22.37;29.84
34297;BME280;20564;42.902;25.336;2023-05-02T09:40:54;97686.44;;;22.74;29.33
34297;BME280;20564;42.902;25.336;2023-05-02T09:43:23;97688.09;;;22.68;28.94
34297;BME280;20564;42.902;25.336;2023-05-02T09:46:00;97681.63;;;22.36;28.40
34297;BME280;20564;42.902;25.336;2023-05-02T09:48:29;97685.03;;;22.03;29.42
34297;BME280;20564;42.902;25.336;2023-05-02T09:50:59;97684.19;;;22.03;30.31
34297;BME280;20564;42.902;25.336;2023-05-02T09:53:31;97674.41;;;22.23;30.42
34297;BME280;20564;42.902;25.336;2023-05-02T09:56:04;97671.53;;;22.45;29.56
34297;BME280;20564;42.902;25.336;2023-05-02T09:58:32;97665.78;;;22.74;29.51
34297;BME280;20564;42.902;25.336;2023-05-02T10:01:06;97661.88;;;22.57;27.83
34297;BME280;20564;42.902;25.336;2023-05-02T10:03:36;97657.34;;;22.64;28.84
34297;BME280;20564;42.902;25.336;2023-05-02T10:06:07;97671.34;;;22.46;28.53
34297;BME280;20564;42.902;25.336;2023-05-02T10:08:38;97669.50;;;22.47;28.74
34297;BME280;20564;42.902;25.336;2023-05-02T10:11:06;97669.50;;;22.47;28.37
34297;BME280;20564;42.902;25.336;2023-05-02T10:13:39;97657.94;;;22.59;29.27
34297;BME280;20564;42.902;25.336;2023-05-02T10:16:11;97661.25;;;22.88;30.29
34297;BME280;20564;42.902;25.336;2023-05-02T10:18:55;97656.75;;;23.02;29.62
34297;BME280;20564;42.902;25.336;2023-05-02T10:21:25;97657.16;;;22.99;29.32
34297;BME280;20564;42.902;25.336;2023-05-02T10:23:57;97644.94;;;23.16;29.04
34297;BME280;20564;42.902;25.336;2023-05-02T10:26:27;97635.25;;;23.15;29.28
34297;BME280;20564;42.902;25.336;2023-05-02T10:28:56;97638.94;;;23.21;28.94
34297;BME280;20564;42.902;25.336;2023-05-02T10:31:27;97641.44;;;22.96;27.81
34297;BME280;20564;42.902;25.336;2023-05-02T10:33:59;97640.22;;;22.98;28.83
34297;BME280;20564;42.902;25.336;2023-05-02T10:36:35;97634.84;;;22.92;28.43
34297;BME280;20564;42.902;25.336;2023-05-02T10:39:13;97630.31;;;22.92;27.95
34297;BME280;20564;42.902;25.336;2023-05-02T10:41:43;97636.88;;;22.63;28.38
34297;BME280;20564;42.902;25.336;2023-05-02T10:44:12;97639.59;;;22.76;27.94
34297;BME280;20564;42.902;25.336;2023-05-02T10:46:54;97632.78;;;22.67;27.65
34297;BME280;20564;42.902;25.336;2023-05-02T10:49:24;97637.72;;;22.70;27.99
34297;BME280;20564;42.902;25.336;2023-05-02T10:52:31;97638.16;;;22.60;27.70
34297;BME280;20564;42.902;25.336;2023-05-02T10:55:20;97637.31;;;22.67;28.21
34297;BME280;20564;42.902;25.336;2023-05-02T11:00:45;97642.66;;;22.67;28.04
34297;BME280;20564;42.902;25.336;2023-05-02T11:03:13;97636.47;;;22.66;27.86
34297;BME280;20564;42.902;25.336;2023-05-02T11:06:03;97632.34;;;22.83;27.96
34297;BME280;20564;42.902;25.336;2023-05-02T11:08:33;97642.69;;;22.86;28.14
34297;BME280;20564;42.902;25.336;2023-05-02T11:17:08;97636.50;;;22.79;27.07
34297;BME280;20564;42.902;25.336;2023-05-02T11:22:44;97640.00;;;22.60;27.79
34297;BME280;20564;42.902;25.336;2023-05-02T11:25:32;97636.28;;;22.54;26.33
34297;BME280;20564;42.902;25.336;2023-05-02T11:28:00;97635.66;;;22.59;27.92
34297;BME280;20564;42.902;25.336;2023-05-02T11:30:46;97632.75;;;22.80;26.54
34297;BME280;20564;42.902;25.336;2023-05-02T11:33:16;97622.66;;;22.43;26.02
34297;BME280;20564;42.902;25.336;2023-05-02T11:35:44;97640.19;;;22.58;27.02
34297;BME280;20564;42.902;25.336;2023-05-02T11:38:18;97640.19;;;22.52;27.46
34297;BME280;20564;42.902;25.336;2023-05-02T11:40:58;97629.88;;;22.55;27.32
34297;BME280;20564;42.902;25.336;2023-05-02T11:43:36;97631.53;;;22.50;26.39
34297;BME280;20564;42.902;25.336;2023-05-02T11:46:08;97627.59;;;22.39;27.07
34297;BME280;20564;42.902;25.336;2023-05-02T11:48:50;97631.69;;;22.22;26.96
34297;BME280;20564;42.902;25.336;2023-05-02T11:51:22;97622.22;;;22.32;26.37
34297;BME280;20564;42.902;25.336;2023-05-02T11:53:53;97619.34;;;22.41;27.21
34297;BME280;20564;42.902;25.336;2023-05-02T11:56:26;97607.59;;;22.55;26.46
34297;BME280;20564;42.902;25.336;2023-05-02T11:58:57;97609.66;;;22.66;27.18
34297;BME280;20564;42.902;25.336;2023-05-02T12:01:31;97608.41;;;22.62;27.33
34297;BME280;20564;42.902;25.336;2023-05-02T12:04:06;97601.19;;;22.82;27.42
34297;BME280;20564;42.902;25.336;2023-05-02T12:06:53;97597.28;;;22.78;26.44
34297;BME280;20564;42.902;25.336;2023-05-02T12:09:49;97608.00;;;22.78;27.02
34297;BME280;20564;42.902;25.336;2023-05-02T12:12:20;97598.91;;;22.86;26.24
34297;BME280;20564;42.902;25.336;2023-05-02T12:14:48;97596.03;;;22.94;26.78
34297;BME280;20564;42.902;25.336;2023-05-02T12:17:16;97591.06;;;23.11;27.49
34297;BME280;20564;42.902;25.336;2023-05-02T12:19:44;97604.44;;;23.24;26.56
34297;BME280;20564;42.902;25.336;2023-05-02T12:22:13;97596.78;;;23.21;26.57
34297;BME280;20564;42.902;25.336;2023-05-02T12:24:41;97593.94;;;23.09;26.83
34297;BME280;20564;42.902;25.336;2023-05-02T12:27:11;97589.84;;;22.94;26.49
34297;BME280;20564;42.902;25.336;2023-05-02T12:29:42;97588.16;;;23.06;27.00
34297;BME280;20564;42.902;25.336;2023-05-02T12:32:33;97583.59;;;23.26;26.83
34297;BME280;20564;42.902;25.336;2023-05-02T12:35:02;97581.06;;;23.31;27.02
34297;BME280;20564;42.902;25.336;2023-05-02T12:37:30;97580.06;;;23.26;27.33
34297;BME280;20564;42.902;25.336;2023-05-02T12:39:58;97578.22;;;23.26;26.94
34297;BME280;20564;42.902;25.336;2023-05-02T12:42:26;97575.69;;;23.31;27.01
34297;BME280;20564;42.902;25.336;2023-05-02T12:44:54;97578.59;;;23.37;27.64
34297;BME280;20564;42.902;25.336;2023-05-02T12:47:22;97571.78;;;23.27;26.67
34297;BME280;20564;42.902;25.336;2023-05-02T12:52:47;97561.94;;;23.08;27.28
34297;BME280;20564;42.902;25.336;2023-05-02T12:55:20;97574.31;;;23.16;27.84
34297;BME280;20564;42.902;25.336;2023-05-02T12:57:58;97563.38;;;22.91;27.82
34297;BME280;20564;42.902;25.336;2023-05-02T13:00:32;97563.19;;;22.92;28.24
34297;BME280;20564;42.902;25.336;2023-05-02T13:03:04;97554.09;;;22.86;28.87
34297;BME280;20564;42.902;25.336;2023-05-02T13:05:33;97551.63;;;22.92;28.99
34297;BME280;20564;42.902;25.336;2023-05-02T13:08:00;97558.22;;;23.09;28.70
34297;BME280;20564;42.902;25.336;2023-05-02T13:10:28;97549.25;;;23.28;28.47
34297;BME280;20564;42.902;25.336;2023-05-02T13:12:55;97560.88;;;23.22;27.72
34297;BME280;20564;42.902;25.336;2023-05-02T13:15:23;97552.44;;;23.05;27.11
34297;BME280;20564;42.902;25.336;2023-05-02T13:17:50;97553.47;;;23.04;27.57
34297;BME280;20564;42.902;25.336;2023-05-02T13:20:18;97554.69;;;22.88;27.36
34297;BME280;20564;42.902;25.336;2023-05-02T13:22:46;97546.66;;;22.88;27.74
34297;BME280;20564;42.902;25.336;2023-05-02T13:25:20;97536.78;;;22.82;27.00
34297;BME280;20564;42.902;25.336;2023-05-02T13:27:57;97551.00;;;22.96;28.55
34297;BME280;20564;42.902;25.336;2023-05-02T13:30:24;97541.91;;;22.91;27.63
34297;BME280;20564;42.902;25.336;2023-05-02T13:32:51;97540.28;;;22.90;26.61
34297;BME280;20564;42.902;25.336;2023-05-02T13:35:19;97531.63;;;22.61;27.39
34297;BME280;20564;42.902;25.336;2023-05-02T13:37:50;97531.63;;;22.61;27.58
34297;BME280;20564;42.902;25.336;2023-05-02T13:40:18;97530.41;;;22.57;27.77
34297;BME280;20564;42.902;25.336;2023-05-02T13:42:45;97524.19;;;22.63;28.41